Terminal Aerodrome Forecast
Issued by NWS

Home | Current Version | Previous Version | Text Only | Print | Product List | Glossary On
Versions: 1 2 3 4 5 6 7 8 9 10 11 12 13 14 15 16 17 18 19 20 21 22 23 24 25 26 27 28 29 30 31 32 33 34 35 36 37 38 39 40 41 42 43 44
000
FTUS45 KGJT 260523
TAFTEX
TAF
KTEX 260523Z 2606/2706 25006KT P6SM VCSH SCT040 SCT060 BKN080
     FM260800 33005KT P6SM VCSH BKN060
     FM261000 34004KT P6SM BKN080
     FM262000 28007KT P6SM VCSH BKN070=

USA.gov is the U.S. government's official web portal to all federal, state and local government web resources and services.